Astoria Regional Airport
KAST : rendu visible

Aérodrome :











RETROUVEZ-NOUS SUR...

 
LOGIN :

S'inscrire | Disclaimer

   EN    FR    IT 

 









Légende :    VFR   VFR Marginal   IFR   IFR Intensif   IFR Très Intensif
Visi : 
Plafond : 
>= 8 km
>= 3000ft
5 à 8 km
1000 à 3000 ft
1500m à 5 km
500 à 1000 ft
800 à 1500m
200 à 500 ft
< 800m
< 200 ft
Symboles :   Orages  Brouillard  Fortes neiges  Fortes précipitations  Vent > 20 kt






- Altitude de l'aérodrome : 15 ft


KAST - Astoria Regional

DERNIER METAR :
  • 201855Z AUTO 05005KT 10SM CLR 11/01 A3021 RMK AO2 SLP229 T01060006

METARs EXPIRÉS :
  • 201755Z AUTO 06007KT 10SM CLR 09/M01 A3020 RMK AO2 SLP226 T00941006 10094 20022 51013
  • 201655Z AUTO 06005KT 10SM CLR 07/00 A3019 RMK AO2 SLP223 T00720000

TAF KAST
Valide du 20 à 18h jusqu'au 21 à 18h UTC


201726Z 2018/2118 08008KT P6SM SKC
FM210000 VRB04KT P6SM SKC



MET'MAP, la Météo Aéronautique d'un coup d'oeil ! - Copyright ORBIFLY Décembre 2007 - Disclaimer

ORBIFLY MET'MAP TEAM :

Programmation & Développement : Alexandra Zaïnal
Sur une idée originale de : Baudouin d'Aumeries
Assistance à la programmation : Marc-Olivier Méhu
Soutien technique & logistique : Manuel Goepfert

Contact : metmap@orbifly.com




SOURCES & CREDITS :

   NOAA       Earth
Advisory